createdAt,value
2019-05-10T00:02:31.106Z,4.57
2019-05-10T00:05:18.099Z,4.97
2019-05-10T00:08:04.962Z,4.30
2019-05-10T00:10:33.177Z,4.20
2019-05-10T00:13:06.417Z,4.72
2019-05-10T00:15:35.802Z,4.40
2019-05-10T00:18:05.146Z,4.95
2019-05-10T00:20:33.932Z,4.87
2019-05-10T00:23:02.716Z,4.50
2019-05-10T00:25:31.230Z,4.87
2019-05-10T00:27:59.736Z,4.85
2019-05-10T00:30:28.600Z,4.80
2019-05-10T00:35:24.918Z,5.33
2019-05-10T00:37:53.501Z,5.62
2019-05-10T00:40:22.100Z,5.72
2019-05-10T00:42:51.393Z,4.80
2019-05-10T00:45:20.389Z,5.03
2019-05-10T00:50:17.118Z,5.35
2019-05-10T00:55:18.820Z,5.53
2019-05-10T00:57:44.426Z,5.60
2019-05-10T01:00:13.620Z,5.90
2019-05-10T01:02:42.503Z,4.90
2019-05-10T01:07:39.163Z,5.45
2019-05-10T01:12:36.117Z,6.67
2019-05-10T01:15:07.871Z,6.92
2019-05-10T01:17:36.958Z,6.60
2019-05-10T01:22:36.771Z,6.80
2019-05-10T01:25:06.343Z,6.53
2019-05-10T01:27:35.189Z,5.97
2019-05-10T01:32:32.005Z,7.17
2019-05-10T01:37:28.399Z,6.40
2019-05-10T01:39:56.919Z,7.35
2019-05-10T01:42:25.598Z,6.78
2019-05-10T01:47:21.844Z,6.23
2019-05-10T01:49:50.433Z,7.55
2019-05-10T01:52:19.204Z,6.60
2019-05-10T01:54:47.718Z,8.03
2019-05-10T01:57:16.515Z,7.47
2019-05-10T01:59:45.117Z,7.33
2019-05-10T02:02:13.689Z,6.03
2019-05-10T02:04:42.292Z,6.67
2019-05-10T02:09:38.963Z,5.78
2019-05-10T02:12:07.741Z,6.45
2019-05-10T02:14:36.342Z,6.55
2019-05-10T02:17:04.987Z,5.78
2019-05-10T02:19:33.505Z,6.70
2019-05-10T02:22:02.444Z,5.67
2019-05-10T02:24:31.573Z,5.92
2019-05-10T02:27:00.074Z,6.03
2019-05-10T02:29:28.752Z,6.90
2019-05-10T02:34:25.062Z,6.80
2019-05-10T02:36:53.739Z,6.60
2019-05-10T02:39:22.665Z,6.10
2019-05-10T02:41:51.826Z,5.78
2019-05-10T02:44:20.350Z,6.72
2019-05-10T02:46:48.941Z,6.22
2019-05-10T02:49:17.796Z,6.60
2019-05-10T02:51:46.375Z,6.55
2019-05-10T02:56:43.865Z,6.60
2019-05-10T02:59:13.695Z,7.10
2019-05-10T03:01:46.272Z,6.62
2019-05-10T03:04:15.536Z,6.87
2019-05-10T03:09:12.792Z,6.28
2019-05-10T03:11:49.691Z,5.90
2019-05-10T03:14:19.078Z,6.50
2019-05-10T03:16:50.686Z,6.10
2019-05-10T03:19:21.073Z,6.75
2019-05-10T03:21:53.405Z,7.37
2019-05-10T03:24:27.563Z,29.63
2019-05-10T03:26:53.514Z,20.55
2019-05-10T03:31:50.103Z,8.50
2019-05-10T03:34:19.404Z,8.58
2019-05-10T03:36:48.936Z,8.00
2019-05-10T03:39:18.096Z,8.95
2019-05-10T03:44:14.861Z,8.63
2019-05-10T03:46:43.453Z,9.03
2019-05-10T03:51:40.132Z,14.60
2019-05-10T03:54:08.632Z,16.80
2019-05-10T03:56:37.303Z,17.98
2019-05-10T04:01:33.995Z,20.55
2019-05-10T04:06:30.296Z,20.03
2019-05-10T04:08:58.889Z,23.60
2019-05-10T04:13:55.346Z,28.63
2019-05-10T04:18:52.074Z,22.05
2019-05-10T04:21:20.577Z,21.95
2019-05-10T04:23:49.395Z,22.90
2019-05-10T04:26:17.921Z,22.17
2019-05-10T04:31:14.611Z,23.45
2019-05-10T04:36:12.755Z,23.47
2019-05-10T04:38:42.313Z,23.92
2019-05-10T04:43:38.964Z,26.90
2019-05-10T04:48:35.271Z,26.37
2019-05-10T04:53:31.982Z,27.58
2019-05-10T04:56:00.565Z,26.80
2019-05-10T05:00:57.256Z,30.43
2019-05-10T05:05:53.583Z,27.07
2019-05-10T05:08:22.186Z,26.33
2019-05-10T05:10:50.780Z,24.90
2019-05-10T05:13:19.282Z,25.25
2019-05-10T05:15:48.091Z,28.20
2019-05-10T05:18:16.603Z,25.40
2019-05-10T05:20:45.550Z,26.17
2019-05-10T05:23:14.403Z,23.10
2019-05-10T05:25:42.949Z,25.57
2019-05-10T05:30:39.604Z,25.57
2019-05-10T05:35:35.922Z,24.83
2019-05-10T05:38:04.505Z,22.87
2019-05-10T05:40:33.303Z,25.95
2019-05-10T05:45:33.967Z,24.82
2019-05-10T05:48:01.939Z,25.93
2019-05-10T05:52:58.607Z,23.45
2019-05-10T05:55:30.601Z,22.90
2019-05-10T05:57:59.216Z,24.55
2019-05-10T06:00:28.801Z,23.92
2019-05-10T06:05:33.928Z,23.65
2019-05-10T06:07:56.442Z,22.77
2019-05-10T06:12:53.160Z,21.75
2019-05-10T06:17:56.623Z,21.07
2019-05-10T06:20:21.928Z,22.40
2019-05-10T06:23:05.785Z,21.42
2019-05-10T06:25:37.760Z,23.30
2019-05-10T06:27:51.792Z,21.40
2019-05-10T06:30:20.460Z,23.18
2019-05-10T06:32:53.224Z,23.35
2019-05-10T06:35:20.920Z,23.75
2019-05-10T06:37:50.234Z,23.05
2019-05-10T06:42:46.980Z,27.05
2019-05-10T06:47:47.567Z,29.23
2019-05-10T06:50:15.942Z,29.67
2019-05-10T06:52:45.141Z,30.55
2019-05-10T06:57:41.443Z,29.33
2019-05-10T07:00:10.788Z,29.18
2019-05-10T07:02:39.649Z,29.10
2019-05-10T07:05:08.551Z,29.52
2019-05-10T07:07:45.610Z,27.53
2019-05-10T07:10:18.301Z,24.90
2019-05-10T07:12:39.972Z,20.97
2019-05-10T07:17:42.406Z,17.37
2019-05-10T07:20:08.523Z,15.88
2019-05-10T07:22:37.625Z,15.58
2019-05-10T07:27:38.359Z,15.20
2019-05-10T07:30:08.224Z,13.68
2019-05-10T07:32:37.477Z,13.38
2019-05-10T07:40:04.053Z,7.58
2019-05-10T07:42:32.909Z,6.97
2019-05-10T07:45:01.676Z,7.40
2019-05-10T07:47:32.595Z,7.40
2019-05-10T07:50:07.285Z,7.90
2019-05-10T07:52:36.266Z,8.95
2019-05-10T07:55:03.031Z,8.25
2019-05-10T08:00:03.519Z,8.55
2019-05-10T08:02:30.616Z,7.78
2019-05-10T08:07:29.418Z,8.43
2019-05-10T08:09:59.456Z,7.90
2019-05-10T08:12:28.998Z,9.30
2019-05-10T08:14:59.020Z,9.80
2019-05-10T08:17:28.755Z,9.43
2019-05-10T08:19:57.951Z,8.70
2019-05-10T08:24:56.032Z,8.15
2019-05-10T08:27:25.045Z,8.20
2019-05-10T08:30:17.859Z,8.38
2019-05-10T08:32:25.628Z,9.30
2019-05-10T08:34:55.856Z,9.20
2019-05-10T08:37:30.908Z,9.30
2019-05-10T08:39:56.314Z,10.25
2019-05-10T08:42:38.098Z,9.50
2019-05-10T08:45:03.655Z,10.23
2019-05-10T08:47:27.802Z,10.80
2019-05-10T08:50:10.999Z,10.80
2019-05-10T08:52:31.149Z,11.70
2019-05-10T08:54:58.279Z,10.25
2019-05-10T09:00:06.655Z,11.45
2019-05-10T09:02:29.313Z,12.33
2019-05-10T09:04:56.355Z,11.63
2019-05-10T09:09:53.271Z,11.20
2019-05-10T09:12:23.090Z,10.72
2019-05-10T09:14:57.316Z,11.88
2019-05-10T09:17:28.108Z,10.75
2019-05-10T09:19:54.095Z,11.65
2019-05-10T09:22:24.024Z,12.50
2019-05-10T09:24:53.530Z,11.83
2019-05-10T09:29:53.053Z,13.08
2019-05-10T09:32:28.588Z,14.23
2019-05-10T09:34:54.424Z,12.93
2019-05-10T09:37:23.802Z,9.08
2019-05-10T09:40:04.252Z,9.30
2019-05-10T09:42:26.464Z,7.97
2019-05-10T09:44:54.602Z,7.35
2019-05-10T09:47:23.121Z,7.45
2019-05-10T09:49:58.497Z,7.08
2019-05-10T09:52:22.198Z,5.50
2019-05-10T09:57:18.523Z,3.53
2019-05-10T09:59:47.134Z,2.67
2019-05-10T10:02:18.705Z,2.42
2019-05-10T10:04:47.332Z,2.50
2019-05-10T10:07:18.723Z,2.20
2019-05-10T10:09:47.792Z,2.37
2019-05-10T10:12:17.519Z,2.57
2019-05-10T10:14:47.259Z,2.73
2019-05-10T10:17:18.363Z,2.50
2019-05-10T10:19:48.121Z,2.20
2019-05-10T10:22:17.439Z,2.90
2019-05-10T10:24:49.072Z,3.07
2019-05-10T10:27:18.140Z,2.73
2019-05-10T10:32:16.211Z,3.12
2019-05-10T10:34:44.999Z,3.50
2019-05-10T10:37:14.753Z,2.98
2019-05-10T10:39:44.014Z,3.87
2019-05-10T10:42:13.414Z,3.17
2019-05-10T10:44:42.423Z,2.87
2019-05-10T10:49:38.666Z,3.00
2019-05-10T10:52:11.435Z,2.83
2019-05-10T10:54:39.929Z,2.17
2019-05-10T10:57:08.554Z,1.87
2019-05-10T11:02:28.814Z,1.40
2019-05-10T11:04:40.721Z,1.70
2019-05-10T11:07:11.123Z,1.80
2019-05-10T11:09:37.647Z,1.70
2019-05-10T11:12:06.217Z,2.08
2019-05-10T11:17:04.389Z,4.08
2019-05-10T11:22:04.350Z,13.93
2019-05-10T11:24:31.536Z,2.40
2019-05-10T11:29:30.872Z,2.00
2019-05-10T11:32:15.228Z,2.13
2019-05-10T11:34:37.446Z,1.70
2019-05-10T11:37:00.890Z,2.00
2019-05-10T11:42:05.183Z,1.50
2019-05-10T11:44:31.535Z,1.65
2019-05-10T11:47:01.538Z,1.73
2019-05-10T11:49:30.841Z,1.87
2019-05-10T11:52:01.669Z,1.90
2019-05-10T11:54:31.908Z,1.90
2019-05-10T11:57:06.606Z,1.77
2019-05-10T11:59:33.894Z,1.70
2019-05-10T12:02:02.885Z,2.30
2019-05-10T12:04:38.839Z,2.03
2019-05-10T12:07:08.462Z,2.00
2019-05-10T12:09:33.577Z,1.60
2019-05-10T12:14:31.647Z,2.45
2019-05-10T12:17:05.617Z,1.72
2019-05-10T12:19:36.838Z,1.90
2019-05-10T12:22:04.696Z,2.00
2019-05-10T12:24:46.879Z,1.97
2019-05-10T12:27:25.769Z,2.00
2019-05-10T12:29:32.714Z,2.30
2019-05-10T12:34:31.167Z,2.37
2019-05-10T12:37:03.777Z,3.95
2019-05-10T12:39:30.987Z,2.33
2019-05-10T12:42:00.031Z,2.73
2019-05-10T12:46:56.724Z,2.40
2019-05-10T12:51:53.396Z,2.42
2019-05-10T12:56:51.381Z,2.10
2019-05-10T12:59:19.873Z,2.10
2019-05-10T13:01:48.470Z,2.20
2019-05-10T13:06:45.778Z,2.17
2019-05-10T13:09:14.284Z,1.60
2019-05-10T13:11:42.876Z,2.35
2019-05-10T13:16:39.666Z,2.30
2019-05-10T13:19:08.532Z,1.73
2019-05-10T13:24:05.360Z,1.67
2019-05-10T13:26:34.188Z,1.70
2019-05-10T13:31:32.314Z,1.80
2019-05-10T13:34:00.923Z,16.27
2019-05-10T13:38:58.969Z,1.47
2019-05-10T13:41:27.473Z,1.80
2019-05-10T13:43:58.877Z,2.10
2019-05-10T13:46:26.556Z,2.03
2019-05-10T13:51:23.160Z,2.17
2019-05-10T13:56:21.224Z,2.00
2019-05-10T13:58:49.741Z,1.72
2019-05-10T14:03:53.713Z,1.85
2019-05-10T14:06:16.903Z,1.80
2019-05-10T14:08:48.409Z,1.70
2019-05-10T14:11:16.374Z,1.83
2019-05-10T14:16:18.160Z,1.85
2019-05-10T14:18:45.892Z,2.50
2019-05-10T14:21:14.109Z,3.20
2019-05-10T14:26:16.453Z,1.98
2019-05-10T14:28:41.243Z,1.53
2019-05-10T14:31:10.100Z,2.13
2019-05-10T14:33:38.966Z,2.00
2019-05-10T14:36:07.858Z,1.80
2019-05-10T14:38:36.725Z,3.00
2019-05-10T14:43:34.739Z,2.12
2019-05-10T14:48:35.274Z,2.45
2019-05-10T14:51:10.591Z,1.93
2019-05-10T14:53:32.546Z,2.30
2019-05-10T14:56:01.337Z,2.27
2019-05-10T15:00:57.918Z,2.08
2019-05-10T15:03:26.802Z,2.40
2019-05-10T15:06:00.955Z,2.03
2019-05-10T15:08:26.178Z,2.40
2019-05-10T15:10:57.160Z,2.67
2019-05-10T15:13:28.046Z,2.07
2019-05-10T15:15:55.990Z,2.70
2019-05-10T15:18:24.873Z,2.30
2019-05-10T15:20:53.650Z,2.37
2019-05-10T15:23:22.503Z,2.80
2019-05-10T15:25:57.128Z,4.20
2019-05-10T15:28:21.890Z,5.57
2019-05-10T15:30:52.592Z,2.37
2019-05-10T15:33:21.276Z,2.43
2019-05-10T15:35:51.749Z,2.00
2019-05-10T15:38:20.580Z,2.30
2019-05-10T15:40:49.421Z,2.30
2019-05-10T15:43:19.057Z,2.30
2019-05-10T15:45:52.296Z,2.97
2019-05-10T15:48:18.604Z,6.37
2019-05-10T15:50:47.473Z,5.30
2019-05-10T15:53:19.424Z,2.80
2019-05-10T15:55:46.936Z,3.47
2019-05-10T15:58:15.842Z,2.57
2019-05-10T16:00:44.725Z,2.83
2019-05-10T16:03:13.626Z,2.80
2019-05-10T16:05:44.112Z,2.40
2019-05-10T16:08:13.714Z,2.90
2019-05-10T16:10:42.853Z,2.80
2019-05-10T16:13:15.145Z,2.60
2019-05-10T16:15:42.234Z,2.87
2019-05-10T16:18:14.617Z,2.37
2019-05-10T16:20:43.532Z,2.40
2019-05-10T16:23:12.394Z,2.40
2019-05-10T16:25:47.574Z,3.13
2019-05-10T16:28:15.563Z,2.67
2019-05-10T16:30:42.380Z,2.90
2019-05-10T16:33:15.755Z,2.80
2019-05-10T16:35:44.101Z,3.17
2019-05-10T16:38:12.244Z,4.90
2019-05-10T16:40:44.307Z,4.33
2019-05-10T16:43:13.952Z,4.10
2019-05-10T16:45:42.597Z,14.17
2019-05-10T16:48:11.477Z,2.53
2019-05-10T16:50:40.372Z,3.53
2019-05-10T16:53:09.234Z,2.80
2019-05-10T16:55:41.015Z,3.10
2019-05-10T16:58:09.423Z,2.53
2019-05-10T17:00:40.766Z,2.63
2019-05-10T17:03:13.189Z,2.50
2019-05-10T17:05:52.646Z,2.30
2019-05-10T17:08:10.883Z,3.10
2019-05-10T17:13:07.896Z,3.45
2019-05-10T17:15:39.733Z,2.57
2019-05-10T17:18:10.576Z,4.37
2019-05-10T17:20:37.953Z,4.07
2019-05-10T17:23:26.175Z,2.70
2019-05-10T17:25:55.031Z,3.00
2019-05-10T17:30:51.694Z,2.67
2019-05-10T17:35:48.389Z,3.12
2019-05-10T17:40:47.949Z,2.20
2019-05-10T17:43:20.772Z,2.90
2019-05-10T17:45:47.369Z,13.87
2019-05-10T17:50:45.712Z,4.75
2019-05-10T17:53:14.919Z,2.80
2019-05-10T17:58:18.903Z,2.95
2019-05-10T18:00:47.619Z,2.80
2019-05-10T18:05:47.183Z,2.72
2019-05-10T18:08:15.105Z,2.77
2019-05-10T18:13:11.840Z,2.92
2019-05-10T18:18:08.545Z,4.58
2019-05-10T18:20:42.320Z,3.20
2019-05-10T18:23:08.002Z,2.47
2019-05-10T18:25:36.820Z,3.00
2019-05-10T18:30:33.638Z,2.47
2019-05-10T18:35:29.974Z,2.83
2019-05-10T18:37:59.742Z,2.75
2019-05-10T18:40:31.752Z,2.72
2019-05-10T18:43:03.892Z,2.83
2019-05-10T18:45:30.733Z,3.20
2019-05-10T18:47:59.260Z,3.10
2019-05-10T18:50:27.918Z,3.92
2019-05-10T18:55:24.240Z,10.47
2019-05-10T19:00:23.252Z,3.25
2019-05-10T19:02:55.346Z,3.30
2019-05-10T19:05:25.018Z,3.00
2019-05-10T19:08:02.993Z,3.27
2019-05-10T19:10:25.261Z,2.98
2019-05-10T19:13:00.643Z,3.67
2019-05-10T19:15:24.741Z,3.17
2019-05-10T19:20:21.502Z,2.80
2019-05-10T19:25:18.204Z,3.40
2019-05-10T19:27:50.920Z,4.03
2019-05-10T19:30:20.728Z,3.02
2019-05-10T19:32:50.997Z,2.98
2019-05-10T19:35:19.827Z,2.98
2019-05-10T19:37:48.469Z,2.98
2019-05-10T19:42:49.132Z,4.20
2019-05-10T19:45:19.435Z,4.35
2019-05-10T19:47:49.858Z,4.37
2019-05-10T19:50:18.342Z,3.85
2019-05-10T19:52:46.880Z,4.05
2019-05-10T19:55:19.420Z,4.20
2019-05-10T19:57:49.570Z,3.90
2019-05-10T20:00:18.756Z,3.67
2019-05-10T20:02:47.949Z,4.10
2019-05-10T20:07:46.224Z,4.37
2019-05-10T20:10:15.439Z,3.20
2019-05-10T20:12:44.633Z,5.00
2019-05-10T20:17:41.525Z,3.90
2019-05-10T20:20:10.928Z,4.20
2019-05-10T20:22:40.158Z,3.83
2019-05-10T20:25:09.226Z,3.65
2019-05-10T20:27:38.392Z,3.90
2019-05-10T20:32:35.368Z,4.47
2019-05-10T20:35:07.344Z,4.58
2019-05-10T20:37:36.520Z,5.05
2019-05-10T20:40:07.878Z,4.42
2019-05-10T20:42:37.119Z,4.97
2019-05-10T20:47:35.250Z,4.80
2019-05-10T20:50:04.386Z,4.50
2019-05-10T20:52:33.652Z,4.70
2019-05-10T20:57:30.575Z,4.97
2019-05-10T21:02:26.951Z,4.90
2019-05-10T21:04:55.551Z,5.92
2019-05-10T21:07:24.459Z,5.15
2019-05-10T21:12:46.156Z,5.03
2019-05-10T21:15:14.921Z,5.08
2019-05-10T21:20:12.163Z,5.28
2019-05-10T21:22:41.323Z,5.85
2019-05-10T21:25:10.135Z,5.58
2019-05-10T21:27:39.349Z,5.05
2019-05-10T21:32:36.558Z,5.15
2019-05-10T21:35:06.035Z,5.50
2019-05-10T21:37:35.196Z,5.50
2019-05-10T21:40:05.454Z,5.83
2019-05-10T21:42:34.572Z,6.30
2019-05-10T21:45:03.679Z,5.58
2019-05-10T21:47:32.792Z,5.87
2019-05-10T21:50:01.390Z,5.62
2019-05-10T21:52:30.264Z,5.60
2019-05-10T21:54:58.772Z,5.55
2019-05-10T21:57:27.604Z,5.53
2019-05-10T21:59:56.177Z,5.75
2019-05-10T22:02:27.171Z,6.08
2019-05-10T22:04:56.008Z,6.30
2019-05-10T22:09:52.332Z,6.07
2019-05-10T22:12:21.192Z,5.62
2019-05-10T22:14:49.845Z,5.80
2019-05-10T22:17:18.442Z,6.58
2019-05-10T22:19:47.258Z,5.97
2019-05-10T22:22:15.829Z,5.55
2019-05-10T22:24:44.737Z,5.67
2019-05-10T22:29:41.136Z,6.53
2019-05-10T22:32:09.732Z,6.50
2019-05-10T22:34:38.510Z,6.42
2019-05-10T22:37:07.342Z,6.22
2019-05-10T22:39:35.928Z,6.65
2019-05-10T22:42:04.609Z,6.45
2019-05-10T22:44:33.173Z,5.62
2019-05-10T22:47:02.057Z,5.80
2019-05-10T22:49:30.645Z,6.50
2019-05-10T22:51:59.215Z,6.42
2019-05-10T22:54:28.041Z,6.22
2019-05-10T22:56:56.607Z,6.10
2019-05-10T22:59:25.191Z,6.05
2019-05-10T23:01:54.103Z,6.00
2019-05-10T23:06:50.519Z,6.13
2019-05-10T23:09:24.709Z,5.70
2019-05-10T23:11:50.243Z,5.60
2019-05-10T23:16:46.622Z,5.90
2019-05-10T23:19:15.224Z,6.47
2019-05-10T23:21:44.082Z,7.22
2019-05-10T23:24:14.375Z,6.50
2019-05-10T23:26:43.467Z,6.58
2019-05-10T23:29:12.004Z,7.55
2019-05-10T23:31:40.582Z,6.65
2019-05-10T23:34:09.380Z,7.45
2019-05-10T23:36:38.194Z,6.85
2019-05-10T23:39:07.615Z,7.53
2019-05-10T23:41:36.797Z,6.58
2019-05-10T23:44:05.362Z,7.75
2019-05-10T23:46:34.257Z,6.70
2019-05-10T23:49:02.850Z,6.78
2019-05-10T23:51:31.707Z,6.78
2019-05-10T23:54:00.308Z,6.95
2019-05-10T23:56:28.879Z,6.85
2019-05-10T23:58:57.819Z,7.90
